sensor_id;sensor_type;location;lat;lon;timestamp;pressure;altitude;pressure_sealevel;temperature;humidity
75577;BME280;64157;50.138;14.544;2022-12-18T00:00:43;99711.22;;;-10.12;91.71
75577;BME280;64157;50.138;14.544;2022-12-18T00:03:09;99817.91;;;-9.45;91.72
75577;BME280;64157;50.138;14.544;2022-12-18T00:05:35;99784.50;;;-9.85;91.74
75577;BME280;64157;50.138;14.544;2022-12-18T00:08:01;99774.09;;;-9.95;91.46
75577;BME280;64157;50.138;14.544;2022-12-18T00:10:27;99797.28;;;-9.96;91.86
75577;BME280;64157;50.138;14.544;2022-12-18T00:12:53;99838.00;;;-9.79;91.62
75577;BME280;64157;50.138;14.544;2022-12-18T00:15:18;99863.31;;;-9.60;91.96
75577;BME280;64157;50.138;14.544;2022-12-18T00:17:44;99809.72;;;-10.03;91.79
75577;BME280;64157;50.138;14.544;2022-12-18T00:20:09;99868.41;;;-9.80;91.93
75577;BME280;64157;50.138;14.544;2022-12-18T00:22:35;99800.13;;;-10.12;91.67
75577;BME280;64157;50.138;14.544;2022-12-18T00:25:00;99792.84;;;-10.18;92.03
75577;BME280;64157;50.138;14.544;2022-12-18T00:27:26;99771.69;;;-10.34;91.81
75577;BME280;64157;50.138;14.544;2022-12-18T00:29:51;99872.94;;;-9.66;92.18
75577;BME280;64157;50.138;14.544;2022-12-18T00:32:17;99855.06;;;-9.80;91.81
75577;BME280;64157;50.138;14.544;2022-12-18T00:34:42;99869.31;;;-9.73;91.57
75577;BME280;64157;50.138;14.544;2022-12-18T00:37:08;99873.00;;;-9.74;91.69
75577;BME280;64157;50.138;14.544;2022-12-18T00:39:33;99820.56;;;-10.04;91.86
75577;BME280;64157;50.138;14.544;2022-12-18T00:41:58;99794.16;;;-9.99;92.01
75577;BME280;64157;50.138;14.544;2022-12-18T00:44:42;99893.00;;;-9.40;91.71
75577;BME280;64157;50.138;14.544;2022-12-18T00:47:08;99901.50;;;-9.37;91.62
75577;BME280;64157;50.138;14.544;2022-12-18T00:49:33;99810.00;;;-9.98;91.69
75577;BME280;64157;50.138;14.544;2022-12-18T00:51:58;99827.13;;;-9.77;91.69
75577;BME280;64157;50.138;14.544;2022-12-18T00:54:24;99899.53;;;-9.28;91.77
75577;BME280;64157;50.138;14.544;2022-12-18T00:56:49;99823.44;;;-9.91;91.35
75577;BME280;64157;50.138;14.544;2022-12-18T00:59:16;99901.97;;;-9.48;91.68
75577;BME280;64157;50.138;14.544;2022-12-18T01:01:41;99808.41;;;-10.07;91.67
75577;BME280;64157;50.138;14.544;2022-12-18T01:04:07;99831.63;;;-9.93;91.69
75577;BME280;64157;50.138;14.544;2022-12-18T01:06:33;99907.56;;;-9.43;91.40
75577;BME280;64157;50.138;14.544;2022-12-18T01:08:58;99819.47;;;-10.10;91.37
75577;BME280;64157;50.138;14.544;2022-12-18T01:11:24;99771.88;;;-10.36;91.54
75577;BME280;64157;50.138;14.544;2022-12-18T01:13:51;99891.28;;;-9.63;91.51
75577;BME280;64157;50.138;14.544;2022-12-18T01:16:17;99919.28;;;-9.44;91.89
75577;BME280;64157;50.138;14.544;2022-12-18T01:18:43;99934.28;;;-9.43;92.10
75577;BME280;64157;50.138;14.544;2022-12-18T01:21:10;99915.75;;;-9.59;91.69
75577;BME280;64157;50.138;14.544;2022-12-18T01:23:36;99854.19;;;-10.10;91.71
75577;BME280;64157;50.138;14.544;2022-12-18T01:26:14;99836.50;;;-10.25;91.60
75577;BME280;64157;50.138;14.544;2022-12-18T01:28:40;99829.03;;;-10.53;91.47
75577;BME280;64157;50.138;14.544;2022-12-18T01:31:15;99923.78;;;-10.11;91.88
75577;BME280;64157;50.138;14.544;2022-12-18T01:33:41;99928.91;;;-10.24;91.53
75577;BME280;64157;50.138;14.544;2022-12-18T01:36:06;99906.34;;;-10.68;91.32
75577;BME280;64157;50.138;14.544;2022-12-18T01:38:32;99908.97;;;-10.59;91.46
75577;BME280;64157;50.138;14.544;2022-12-18T01:41:01;99941.31;;;-10.54;91.28
75577;BME280;64157;50.138;14.544;2022-12-18T01:43:47;99925.84;;;-10.67;91.42
75577;BME280;64157;50.138;14.544;2022-12-18T01:46:13;99924.56;;;-10.71;91.35
75577;BME280;64157;50.138;14.544;2022-12-18T01:48:40;99903.69;;;-10.98;91.54
75577;BME280;64157;50.138;14.544;2022-12-18T01:51:08;99929.16;;;-10.88;91.27
75577;BME280;64157;50.138;14.544;2022-12-18T01:53:36;99940.09;;;-10.83;91.51
75577;BME280;64157;50.138;14.544;2022-12-18T01:56:02;99841.09;;;-11.42;91.55
75577;BME280;64157;50.138;14.544;2022-12-18T02:01:16;99920.41;;;-11.05;91.83
75577;BME280;64157;50.138;14.544;2022-12-18T02:03:42;99948.75;;;-10.81;91.48
75577;BME280;64157;50.138;14.544;2022-12-18T02:06:23;99948.56;;;-11.10;91.32
75577;BME280;64157;50.138;14.544;2022-12-18T02:09:04;99925.63;;;-11.27;91.44
75577;BME280;64157;50.138;14.544;2022-12-18T02:17:03;99917.97;;;-11.22;91.32
75577;BME280;64157;50.138;14.544;2022-12-18T02:22:40;99941.44;;;-11.18;91.25
75577;BME280;64157;50.138;14.544;2022-12-18T02:28:07;99956.22;;;-11.07;91.32
75577;BME280;64157;50.138;14.544;2022-12-18T02:30:35;99935.97;;;-11.24;91.04
75577;BME280;64157;50.138;14.544;2022-12-18T02:33:04;99995.09;;;-10.82;91.42
75577;BME280;64157;50.138;14.544;2022-12-18T02:35:32;99943.16;;;-10.94;91.39
75577;BME280;64157;50.138;14.544;2022-12-18T02:37:58;99909.84;;;-10.98;91.35
75577;BME280;64157;50.138;14.544;2022-12-18T02:40:26;99957.56;;;-10.72;91.70
75577;BME280;64157;50.138;14.544;2022-12-18T02:42:53;99968.59;;;-10.52;91.50
75577;BME280;64157;50.138;14.544;2022-12-18T02:45:18;99944.25;;;-10.49;91.44
75577;BME280;64157;50.138;14.544;2022-12-18T02:47:47;99977.41;;;-10.21;91.63
75577;BME280;64157;50.138;14.544;2022-12-18T02:55:44;99986.78;;;-9.79;91.44
75577;BME280;64157;50.138;14.544;2022-12-18T02:58:40;99988.66;;;-9.65;91.71
75577;BME280;64157;50.138;14.544;2022-12-18T03:03:59;99965.34;;;-9.56;91.79
75577;BME280;64157;50.138;14.544;2022-12-18T03:06:34;99894.44;;;-9.97;91.61
75577;BME280;64157;50.138;14.544;2022-12-18T03:09:08;99978.66;;;-9.34;91.66
75577;BME280;64157;50.138;14.544;2022-12-18T03:11:38;99974.50;;;-9.36;91.37
75577;BME280;64157;50.138;14.544;2022-12-18T03:14:26;99965.00;;;-9.39;91.39
75577;BME280;64157;50.138;14.544;2022-12-18T03:16:58;100007.97;;;-9.11;91.44
75577;BME280;64157;50.138;14.544;2022-12-18T03:19:25;100001.44;;;-9.08;91.19
75577;BME280;64157;50.138;14.544;2022-12-18T03:21:54;99983.91;;;-9.11;91.46
75577;BME280;64157;50.138;14.544;2022-12-18T03:24:22;99913.50;;;-9.47;91.09
75577;BME280;64157;50.138;14.544;2022-12-18T03:26:52;99932.75;;;-9.37;91.04
75577;BME280;64157;50.138;14.544;2022-12-18T03:29:25;99939.00;;;-9.30;91.16
75577;BME280;64157;50.138;14.544;2022-12-18T03:31:55;100021.34;;;-8.67;90.89
75577;BME280;64157;50.138;14.544;2022-12-18T03:34:29;100005.66;;;-8.70;91.07
75577;BME280;64157;50.138;14.544;2022-12-18T03:36:56;100005.28;;;-8.67;90.95
75577;BME280;64157;50.138;14.544;2022-12-18T03:39:21;99943.53;;;-9.01;90.86
75577;BME280;64157;50.138;14.544;2022-12-18T03:41:52;99963.06;;;-8.86;90.73
75577;BME280;64157;50.138;14.544;2022-12-18T03:49:48;99939.91;;;-8.94;90.34
75577;BME280;64157;50.138;14.544;2022-12-18T03:52:31;100020.53;;;-8.31;90.42
75577;BME280;64157;50.138;14.544;2022-12-18T03:55:01;99960.56;;;-8.73;90.21
75577;BME280;64157;50.138;14.544;2022-12-18T03:57:30;99954.09;;;-8.78;90.09
75577;BME280;64157;50.138;14.544;2022-12-18T04:00:07;99939.19;;;-8.88;89.89
75577;BME280;64157;50.138;14.544;2022-12-18T04:02:33;100003.75;;;-8.40;90.40
75577;BME280;64157;50.138;14.544;2022-12-18T04:05:03;99968.28;;;-8.63;89.90
75577;BME280;64157;50.138;14.544;2022-12-18T04:07:30;100022.31;;;-8.38;89.93
75577;BME280;64157;50.138;14.544;2022-12-18T04:09:56;100023.41;;;-8.33;89.90
75577;BME280;64157;50.138;14.544;2022-12-18T04:12:25;100010.59;;;-8.37;90.09
75577;BME280;64157;50.138;14.544;2022-12-18T04:14:51;99946.09;;;-8.93;90.13
75577;BME280;64157;50.138;14.544;2022-12-18T04:17:17;100021.41;;;-8.45;89.86
75577;BME280;64157;50.138;14.544;2022-12-18T04:19:42;99986.47;;;-8.59;90.12
75577;BME280;64157;50.138;14.544;2022-12-18T04:22:10;99964.97;;;-8.80;89.93
75577;BME280;64157;50.138;14.544;2022-12-18T04:24:35;99975.78;;;-8.73;90.01
75577;BME280;64157;50.138;14.544;2022-12-18T04:27:01;100037.88;;;-8.27;90.14
75577;BME280;64157;50.138;14.544;2022-12-18T04:29:27;100020.09;;;-8.35;89.78
75577;BME280;64157;50.138;14.544;2022-12-18T04:31:53;100049.50;;;-8.20;89.79
75577;BME280;64157;50.138;14.544;2022-12-18T04:34:19;100045.50;;;-8.24;89.97
75577;BME280;64157;50.138;14.544;2022-12-18T04:36:45;99990.22;;;-8.53;89.56
75577;BME280;64157;50.138;14.544;2022-12-18T04:39:11;99954.81;;;-8.70;89.67
75577;BME280;64157;50.138;14.544;2022-12-18T04:41:36;100014.75;;;-8.35;89.63
75577;BME280;64157;50.138;14.544;2022-12-18T04:44:02;100017.97;;;-8.39;89.64
75577;BME280;64157;50.138;14.544;2022-12-18T04:46:27;99971.97;;;-8.64;89.54
75577;BME280;64157;50.138;14.544;2022-12-18T04:48:52;100045.78;;;-8.19;89.40
75577;BME280;64157;50.138;14.544;2022-12-18T04:51:18;100049.50;;;-8.20;89.49
75577;BME280;64157;50.138;14.544;2022-12-18T04:53:43;100019.44;;;-8.37;89.25
75577;BME280;64157;50.138;14.544;2022-12-18T04:56:11;100038.78;;;-8.20;89.25
75577;BME280;64157;50.138;14.544;2022-12-18T04:58:38;99988.00;;;-8.49;88.97
75577;BME280;64157;50.138;14.544;2022-12-18T05:01:04;100010.16;;;-8.41;89.34
75577;BME280;64157;50.138;14.544;2022-12-18T05:03:30;100047.34;;;-8.10;89.66
75577;BME280;64157;50.138;14.544;2022-12-18T05:05:56;100060.06;;;-7.97;90.12
75577;BME280;64157;50.138;14.544;2022-12-18T05:08:21;99978.78;;;-8.47;89.63
75577;BME280;64157;50.138;14.544;2022-12-18T05:10:47;100043.38;;;-8.14;89.77
75577;BME280;64157;50.138;14.544;2022-12-18T05:13:12;100052.97;;;-8.05;89.82
75577;BME280;64157;50.138;14.544;2022-12-18T05:15:38;100054.91;;;-7.99;89.50
75577;BME280;64157;50.138;14.544;2022-12-18T05:18:04;100029.16;;;-8.14;89.45
75577;BME280;64157;50.138;14.544;2022-12-18T05:20:30;100065.84;;;-7.94;89.66
75577;BME280;64157;50.138;14.544;2022-12-18T05:22:55;100058.84;;;-7.95;89.70
75577;BME280;64157;50.138;14.544;2022-12-18T05:25:22;100020.03;;;-8.20;89.49
75577;BME280;64157;50.138;14.544;2022-12-18T05:27:48;100048.06;;;-8.01;89.84
75577;BME280;64157;50.138;14.544;2022-12-18T05:30:14;100068.53;;;-7.94;90.03
75577;BME280;64157;50.138;14.544;2022-12-18T05:32:40;100073.88;;;-7.79;90.13
75577;BME280;64157;50.138;14.544;2022-12-18T05:35:07;100097.03;;;-7.71;89.98
75577;BME280;64157;50.138;14.544;2022-12-18T05:37:33;100033.38;;;-8.05;89.87
75577;BME280;64157;50.138;14.544;2022-12-18T05:39:59;100051.25;;;-7.91;90.12
75577;BME280;64157;50.138;14.544;2022-12-18T05:42:24;100005.63;;;-8.19;90.05
75577;BME280;64157;50.138;14.544;2022-12-18T05:44:50;100101.50;;;-7.57;90.07
75577;BME280;64157;50.138;14.544;2022-12-18T05:47:16;100005.25;;;-8.16;90.05
75577;BME280;64157;50.138;14.544;2022-12-18T05:49:41;100053.38;;;-7.87;89.92
75577;BME280;64157;50.138;14.544;2022-12-18T05:52:07;100106.69;;;-7.56;90.21
75577;BME280;64157;50.138;14.544;2022-12-18T05:54:32;100107.13;;;-7.52;90.29
75577;BME280;64157;50.138;14.544;2022-12-18T05:56:58;100099.00;;;-7.59;90.03
75577;BME280;64157;50.138;14.544;2022-12-18T05:59:23;100070.59;;;-7.74;90.19
75577;BME280;64157;50.138;14.544;2022-12-18T06:01:49;100093.00;;;-7.61;90.25
75577;BME280;64157;50.138;14.544;2022-12-18T06:04:14;100095.75;;;-7.54;90.36
75577;BME280;64157;50.138;14.544;2022-12-18T06:06:40;100095.56;;;-7.53;90.41
75577;BME280;64157;50.138;14.544;2022-12-18T06:09:05;100114.28;;;-7.38;90.33
75577;BME280;64157;50.138;14.544;2022-12-18T06:11:34;100053.69;;;-7.75;90.40
75577;BME280;64157;50.138;14.544;2022-12-18T06:13:59;100123.47;;;-7.26;90.36
75577;BME280;64157;50.138;14.544;2022-12-18T06:16:27;100080.78;;;-7.49;90.62
75577;BME280;64157;50.138;14.544;2022-12-18T06:18:52;100128.44;;;-7.23;90.42
75577;BME280;64157;50.138;14.544;2022-12-18T06:21:18;100133.66;;;-7.15;90.57
75577;BME280;64157;50.138;14.544;2022-12-18T06:23:43;100139.31;;;-7.10;90.68
75577;BME280;64157;50.138;14.544;2022-12-18T06:26:11;100121.91;;;-7.14;90.57
75577;BME280;64157;50.138;14.544;2022-12-18T06:28:37;100128.91;;;-7.19;90.48
75577;BME280;64157;50.138;14.544;2022-12-18T06:31:03;100133.09;;;-7.10;90.77
75577;BME280;64157;50.138;14.544;2022-12-18T06:33:29;100063.69;;;-7.62;90.64
75577;BME280;64157;50.138;14.544;2022-12-18T06:36:07;99969.16;;;-8.20;90.53
75577;BME280;64157;50.138;14.544;2022-12-18T06:38:41;100089.94;;;-7.58;90.50
75577;BME280;64157;50.138;14.544;2022-12-18T06:41:08;100024.59;;;-7.99;90.64
75577;BME280;64157;50.138;14.544;2022-12-18T06:43:34;100081.84;;;-7.64;90.54
75577;BME280;64157;50.138;14.544;2022-12-18T06:46:00;100053.09;;;-7.92;90.90
75577;BME280;64157;50.138;14.544;2022-12-18T06:48:26;100124.88;;;-7.51;91.04
75577;BME280;64157;50.138;14.544;2022-12-18T06:50:53;100099.97;;;-7.66;91.06
75577;BME280;64157;50.138;14.544;2022-12-18T06:53:18;100165.47;;;-7.33;90.78
75577;BME280;64157;50.138;14.544;2022-12-18T06:55:44;100036.00;;;-8.12;90.80
75577;BME280;64157;50.138;14.544;2022-12-18T06:58:09;100179.66;;;-7.18;90.91
75577;BME280;64157;50.138;14.544;2022-12-18T07:00:35;100190.78;;;-7.21;91.16
75577;BME280;64157;50.138;14.544;2022-12-18T07:03:00;100194.53;;;-7.15;90.99
75577;BME280;64157;50.138;14.544;2022-12-18T07:05:26;100178.78;;;-7.25;90.96
75577;BME280;64157;50.138;14.544;2022-12-18T07:07:51;100204.06;;;-7.13;90.93
75577;BME280;64157;50.138;14.544;2022-12-18T07:10:17;100197.81;;;-7.20;90.76
75577;BME280;64157;50.138;14.544;2022-12-18T07:12:50;100108.34;;;-7.91;90.93
75577;BME280;64157;50.138;14.544;2022-12-18T07:15:19;100037.66;;;-8.47;90.51
75577;BME280;64157;50.138;14.544;2022-12-18T07:17:44;100061.03;;;-8.20;90.73
75577;BME280;64157;50.138;14.544;2022-12-18T07:20:13;100150.16;;;-7.75;90.47
75577;BME280;64157;50.138;14.544;2022-12-18T07:22:40;100103.47;;;-8.02;90.54
75577;BME280;64157;50.138;14.544;2022-12-18T07:25:07;100208.25;;;-7.46;90.25
75577;BME280;64157;50.138;14.544;2022-12-18T07:27:34;100184.34;;;-7.62;90.04
75577;BME280;64157;50.138;14.544;2022-12-18T07:30:00;100113.75;;;-8.05;90.29
75577;BME280;64157;50.138;14.544;2022-12-18T07:32:25;100152.41;;;-7.93;90.14
75577;BME280;64157;50.138;14.544;2022-12-18T07:34:51;100045.16;;;-8.57;90.08
75577;BME280;64157;50.138;14.544;2022-12-18T07:37:16;100088.03;;;-8.36;90.47
75577;BME280;64157;50.138;14.544;2022-12-18T07:39:42;100228.16;;;-7.55;90.38
75577;BME280;64157;50.138;14.544;2022-12-18T07:42:07;100170.56;;;-7.95;90.33
75577;BME280;64157;50.138;14.544;2022-12-18T07:44:51;100176.56;;;-8.08;89.95
75577;BME280;64157;50.138;14.544;2022-12-18T07:47:17;100251.47;;;-7.70;90.20
75577;BME280;64157;50.138;14.544;2022-12-18T07:49:42;100188.03;;;-8.14;89.92
75577;BME280;64157;50.138;14.544;2022-12-18T07:52:08;100222.84;;;-7.99;89.92
75577;BME280;64157;50.138;14.544;2022-12-18T07:54:34;100226.72;;;-8.02;89.94
75577;BME280;64157;50.138;14.544;2022-12-18T07:57:00;100217.94;;;-7.96;89.79
75577;BME280;64157;50.138;14.544;2022-12-18T07:59:25;100182.09;;;-8.24;90.01
75577;BME280;64157;50.138;14.544;2022-12-18T08:01:51;100228.66;;;-7.96;89.90
75577;BME280;64157;50.138;14.544;2022-12-18T08:04:16;100253.03;;;-7.76;89.76
75577;BME280;64157;50.138;14.544;2022-12-18T08:06:42;100267.00;;;-7.81;89.64
75577;BME280;64157;50.138;14.544;2022-12-18T08:09:10;100156.94;;;-8.44;89.26
75577;BME280;64157;50.138;14.544;2022-12-18T08:11:35;100178.78;;;-8.26;89.45
75577;BME280;64157;50.138;14.544;2022-12-18T08:14:01;100166.59;;;-8.29;89.75
75577;BME280;64157;50.138;14.544;2022-12-18T08:16:26;100260.44;;;-7.78;89.45
75577;BME280;64157;50.138;14.544;2022-12-18T08:18:53;100262.28;;;-7.78;89.58
75577;BME280;64157;50.138;14.544;2022-12-18T08:21:21;100254.53;;;-7.88;89.65
75577;BME280;64157;50.138;14.544;2022-12-18T08:23:49;100243.72;;;-7.80;89.36
75577;BME280;64157;50.138;14.544;2022-12-18T08:26:15;100194.03;;;-8.27;89.01
75577;BME280;64157;50.138;14.544;2022-12-18T08:28:41;100247.31;;;-7.88;89.37
75577;BME280;64157;50.138;14.544;2022-12-18T08:31:07;100172.53;;;-8.33;89.15
75577;BME280;64157;50.138;14.544;2022-12-18T08:33:34;100247.78;;;-7.69;89.00
75577;BME280;64157;50.138;14.544;2022-12-18T08:36:00;100201.22;;;-8.12;88.95
75577;BME280;64157;50.138;14.544;2022-12-18T08:38:28;100095.00;;;-8.71;88.66
75577;BME280;64157;50.138;14.544;2022-12-18T08:41:01;100230.34;;;-7.95;88.83
75577;BME280;64157;50.138;14.544;2022-12-18T08:43:27;100232.16;;;-7.81;88.63
75577;BME280;64157;50.138;14.544;2022-12-18T08:46:12;100179.81;;;-8.12;88.73
75577;BME280;64157;50.138;14.544;2022-12-18T08:48:38;100259.50;;;-7.70;88.63
75577;BME280;64157;50.138;14.544;2022-12-18T08:51:03;100242.06;;;-7.81;88.56
75577;BME280;64157;50.138;14.544;2022-12-18T08:53:29;100232.53;;;-7.98;88.49
75577;BME280;64157;50.138;14.544;2022-12-18T08:55:56;100255.00;;;-7.85;88.29
75577;BME280;64157;50.138;14.544;2022-12-18T08:58:21;100092.41;;;-8.64;88.32
75577;BME280;64157;50.138;14.544;2022-12-18T09:00:47;100139.56;;;-8.48;88.34
75577;BME280;64157;50.138;14.544;2022-12-18T09:03:13;100235.69;;;-7.80;88.36
75577;BME280;64157;50.138;14.544;2022-12-18T09:05:39;100196.88;;;-8.13;88.32
75577;BME280;64157;50.138;14.544;2022-12-18T09:08:05;100234.38;;;-7.69;88.42
75577;BME280;64157;50.138;14.544;2022-12-18T09:10:31;100246.63;;;-7.60;88.34
75577;BME280;64157;50.138;14.544;2022-12-18T09:12:56;100146.84;;;-8.13;88.14
75577;BME280;64157;50.138;14.544;2022-12-18T09:15:22;100226.03;;;-7.74;88.09
75577;BME280;64157;50.138;14.544;2022-12-18T09:17:47;100184.66;;;-7.87;88.42
75577;BME280;64157;50.138;14.544;2022-12-18T09:20:13;100247.34;;;-7.37;88.53
75577;BME280;64157;50.138;14.544;2022-12-18T09:22:39;100254.47;;;-7.44;87.92
75577;BME280;64157;50.138;14.544;2022-12-18T09:25:04;100258.53;;;-7.33;88.14
75577;BME280;64157;50.138;14.544;2022-12-18T09:27:33;100264.66;;;-7.39;88.39
75577;BME280;64157;50.138;14.544;2022-12-18T09:29:58;100233.88;;;-7.58;88.25
75577;BME280;64157;50.138;14.544;2022-12-18T09:32:24;100240.38;;;-7.31;88.04
75577;BME280;64157;50.138;14.544;2022-12-18T09:34:49;100264.06;;;-7.20;87.86
75577;BME280;64157;50.138;14.544;2022-12-18T09:37:15;100178.50;;;-7.51;87.71
75577;BME280;64157;50.138;14.544;2022-12-18T09:39:43;100270.06;;;-6.97;87.94
75577;BME280;64157;50.138;14.544;2022-12-18T09:42:21;100264.06;;;-6.99;87.69
75577;BME280;64157;50.138;14.544;2022-12-18T09:44:56;100238.81;;;-7.26;87.47
75577;BME280;64157;50.138;14.544;2022-12-18T09:47:37;100283.88;;;-7.00;87.27
75577;BME280;64157;50.138;14.544;2022-12-18T09:50:27;100286.69;;;-7.08;86.97
75577;BME280;64157;50.138;14.544;2022-12-18T09:52:58;100213.47;;;-7.74;86.96
75577;BME280;64157;50.138;14.544;2022-12-18T09:55:42;100262.34;;;-7.42;86.74
75577;BME280;64157;50.138;14.544;2022-12-18T10:00:35;100276.56;;;-7.42;87.40
75577;BME280;64157;50.138;14.544;2022-12-18T10:03:09;100292.81;;;-7.29;86.90
75577;BME280;64157;50.138;14.544;2022-12-18T10:08:22;100315.84;;;-7.20;86.92
75577;BME280;64157;50.138;14.544;2022-12-18T10:10:52;100311.00;;;-7.10;86.78
75577;BME280;64157;50.138;14.544;2022-12-18T10:13:23;100242.84;;;-7.51;86.67
75577;BME280;64157;50.138;14.544;2022-12-18T10:16:19;100148.19;;;-8.02;87.32
75577;BME280;64157;50.138;14.544;2022-12-18T10:24:54;100295.00;;;-7.03;86.84
75577;BME280;64157;50.138;14.544;2022-12-18T10:27:25;100249.72;;;-6.91;86.58
75577;BME280;64157;50.138;14.544;2022-12-18T10:29:52;100217.28;;;-7.11;86.23
75577;BME280;64157;50.138;14.544;2022-12-18T10:32:22;100288.56;;;-6.66;85.56
75577;BME280;64157;50.138;14.544;2022-12-18T10:34:49;100269.75;;;-6.66;85.44
75577;BME280;64157;50.138;14.544;2022-12-18T10:37:18;100246.75;;;-6.75;84.85
75577;BME280;64157;50.138;14.544;2022-12-18T10:39:45;100244.97;;;-6.68;85.23
75577;BME280;64157;50.138;14.544;2022-12-18T10:42:19;100258.13;;;-6.52;85.24
75577;BME280;64157;50.138;14.544;2022-12-18T10:44:45;100191.41;;;-6.97;84.99
75577;BME280;64157;50.138;14.544;2022-12-18T10:47:14;100194.81;;;-6.89;85.36
75577;BME280;64157;50.138;14.544;2022-12-18T10:49:49;100126.44;;;-7.14;85.44
75577;BME280;64157;50.138;14.544;2022-12-18T10:52:20;100227.03;;;-6.12;85.55
75577;BME280;64157;50.138;14.544;2022-12-18T10:55:02;100206.94;;;-6.16;84.52
75577;BME280;64157;50.138;14.544;2022-12-18T10:57:39;100234.78;;;-6.23;84.74
75577;BME280;64157;50.138;14.544;2022-12-18T11:02:50;100230.09;;;-6.15;84.99
75577;BME280;64157;50.138;14.544;2022-12-18T11:05:25;100224.44;;;-6.26;84.41
75577;BME280;64157;50.138;14.544;2022-12-18T11:07:51;100224.19;;;-6.31;84.41
75577;BME280;64157;50.138;14.544;2022-12-18T11:10:25;100184.78;;;-6.52;84.73
75577;BME280;64157;50.138;14.544;2022-12-18T11:12:52;100219.22;;;-6.00;85.46
75577;BME280;64157;50.138;14.544;2022-12-18T11:15:21;100243.47;;;-5.80;84.47
75577;BME280;64157;50.138;14.544;2022-12-18T11:17:50;100224.22;;;-5.97;84.23
75577;BME280;64157;50.138;14.544;2022-12-18T11:20:32;100211.19;;;-5.87;84.78
75577;BME280;64157;50.138;14.544;2022-12-18T11:23:04;100160.19;;;-6.21;84.84
75577;BME280;64157;50.138;14.544;2022-12-18T11:25:37;100204.16;;;-5.88;85.46
75577;BME280;64157;50.138;14.544;2022-12-18T11:28:04;100209.13;;;-5.98;85.25
75577;BME280;64157;50.138;14.544;2022-12-18T11:30:36;100220.28;;;-5.94;85.49
75577;BME280;64157;50.138;14.544;2022-12-18T11:33:09;100191.78;;;-6.23;85.57
75577;BME280;64157;50.138;14.544;2022-12-18T11:38:24;100200.34;;;-6.41;86.31
75577;BME280;64157;50.138;14.544;2022-12-18T11:41:23;100211.41;;;-6.23;86.34
75577;BME280;64157;50.138;14.544;2022-12-18T11:44:14;100175.16;;;-6.68;86.33
75577;BME280;64157;50.138;14.544;2022-12-18T11:46:51;100109.09;;;-7.18;86.94
75577;BME280;64157;50.138;14.544;2022-12-18T11:49:34;100150.41;;;-7.13;87.25
75577;BME280;64157;50.138;14.544;2022-12-18T11:52:24;100182.28;;;-6.54;86.22
75577;BME280;64157;50.138;14.544;2022-12-18T11:54:58;100079.28;;;-7.30;85.81
75577;BME280;64157;50.138;14.544;2022-12-18T12:00:36;100197.75;;;-6.56;86.08
75577;BME280;64157;50.138;14.544;2022-12-18T12:03:19;100224.22;;;-6.25;85.76
75577;BME280;64157;50.138;14.544;2022-12-18T12:18:04;100238.81;;;-6.62;86.35
75577;BME280;64157;50.138;14.544;2022-12-18T12:20:41;100238.38;;;-6.65;86.20
75577;BME280;64157;50.138;14.544;2022-12-18T12:26:06;100196.25;;;-7.29;86.97
75577;BME280;64157;50.138;14.544;2022-12-18T12:28:48;100203.78;;;-7.18;87.31
75577;BME280;64157;50.138;14.544;2022-12-18T12:35:12;100222.41;;;-7.52;87.83
75577;BME280;64157;50.138;14.544;2022-12-18T12:39:59;100212.53;;;-7.52;87.37
75577;BME280;64157;50.138;14.544;2022-12-18T12:42:59;100131.38;;;-7.96;87.04
75577;BME280;64157;50.138;14.544;2022-12-18T12:51:02;100085.97;;;-8.19;87.89
75577;BME280;64157;50.138;14.544;2022-12-18T12:53:33;100240.06;;;-7.43;88.62
75577;BME280;64157;50.138;14.544;2022-12-18T12:56:01;100166.84;;;-7.79;88.56
75577;BME280;64157;50.138;14.544;2022-12-18T13:01:49;100253.19;;;-7.33;88.56
75577;BME280;64157;50.138;14.544;2022-12-18T13:04:45;100264.53;;;-7.31;88.75
75577;BME280;64157;50.138;14.544;2022-12-18T13:13:23;100276.09;;;-6.95;88.79
75577;BME280;64157;50.138;14.544;2022-12-18T13:16:51;100144.06;;;-7.69;88.57
75577;BME280;64157;50.138;14.544;2022-12-18T13:22:58;100078.09;;;-8.06;87.50
75577;BME280;64157;50.138;14.544;2022-12-18T13:29:13;100251.44;;;-7.05;87.80
75577;BME280;64157;50.138;14.544;2022-12-18T13:32:22;100135.00;;;-7.68;87.24
75577;BME280;64157;50.138;14.544;2022-12-18T13:34:48;100189.22;;;-7.51;87.33
75577;BME280;64157;50.138;14.544;2022-12-18T13:39:57;100207.34;;;-7.53;87.47
75577;BME280;64157;50.138;14.544;2022-12-18T13:45:43;100245.78;;;-7.46;87.45
75577;BME280;64157;50.138;14.544;2022-12-18T13:48:23;100245.16;;;-7.63;87.52
75577;BME280;64157;50.138;14.544;2022-12-18T13:51:10;100241.28;;;-7.75;87.66
75577;BME280;64157;50.138;14.544;2022-12-18T13:53:45;100250.47;;;-7.69;87.93
75577;BME280;64157;50.138;14.544;2022-12-18T13:56:27;100139.88;;;-8.43;87.71
75577;BME280;64157;50.138;14.544;2022-12-18T14:01:46;100190.63;;;-8.35;87.98
75577;BME280;64157;50.138;14.544;2022-12-18T14:04:18;100246.78;;;-7.98;88.29
75577;BME280;64157;50.138;14.544;2022-12-18T14:06:45;100243.72;;;-7.95;88.32
75577;BME280;64157;50.138;14.544;2022-12-18T14:09:16;100253.31;;;-8.15;88.49
75577;BME280;64157;50.138;14.544;2022-12-18T14:11:47;100279.00;;;-8.06;88.47
75577;BME280;64157;50.138;14.544;2022-12-18T14:14:15;100267.63;;;-8.08;88.58
75577;BME280;64157;50.138;14.544;2022-12-18T14:16:41;100245.09;;;-8.28;88.90
75577;BME280;64157;50.138;14.544;2022-12-18T14:19:17;100239.09;;;-8.30;89.38
75577;BME280;64157;50.138;14.544;2022-12-18T14:21:49;100200.22;;;-8.56;89.33
75577;BME280;64157;50.138;14.544;2022-12-18T14:24:18;100233.44;;;-8.21;89.31
75577;BME280;64157;50.138;14.544;2022-12-18T14:26:45;100197.44;;;-8.47;89.40
75577;BME280;64157;50.138;14.544;2022-12-18T14:32:14;100243.31;;;-8.21;89.48
75577;BME280;64157;50.138;14.544;2022-12-18T14:34:50;100245.66;;;-8.18;89.64
75577;BME280;64157;50.138;14.544;2022-12-18T14:37:24;100275.22;;;-7.97;89.75